Time;durP1;ratioP1;P1;durP2;ratioP2;P2;SDS_P1;SDS_P2;PMS_P1;PMS_P2;Temp;Humidity;BMP_temperature;BMP_pressure;BME280_temperature;BME280_humidity;BME280_pressure;Samples;Min_cycle;Max_cycle;Signal;HPM_P1;HPM_P2
2021/07/12 00:00:14;;;;;;;9.11;7.61;;;;;;;;;;361788;147;857374;-63
2021/07/12 00:01:16;;;;;;;9.07;7.72;;;;;;;;;;361148;147;857377;-63
2021/07/12 00:02:17;;;;;;;10.56;7.62;;;;;;;;;;357761;148;865991;-63
2021/07/12 00:03:19;;;;;;;10.94;7.86;;;;;;;;;;357824;148;857424;-63
2021/07/12 00:04:21;;;;;;;9.21;8.04;;;;;;;;;;360525;147;857374;-63
2021/07/12 00:05:22;;;;;;;10.95;7.62;;;;;;;;;;360066;147;857483;-63
2021/07/12 00:06:24;;;;;;;13.30;8.75;;;;;;;;;;359907;147;866805;-63
2021/07/12 00:07:25;;;;;;;9.36;8.34;;;;;;;;;;358260;148;859091;-64
2021/07/12 00:08:27;;;;;;;9.29;7.70;;;;;;;;;;362291;147;858307;-64
2021/07/12 00:09:29;;;;;;;12.54;7.81;;;;;;;;;;361423;148;857336;-64
2021/07/12 00:10:31;;;;;;;8.83;7.87;;;;;;;;;;359124;148;864923;-64
2021/07/12 00:11:32;;;;;;;9.45;8.15;;;;;;;;;;358840;147;857846;-64
2021/07/12 00:12:34;;;;;;;10.31;7.74;;;;;;;;;;359542;147;857213;-63
2021/07/12 00:13:36;;;;;;;12.84;8.06;;;;;;;;;;357238;148;857326;-64
2021/07/12 00:14:37;;;;;;;9.56;8.09;;;;;;;;;;359791;147;864905;-64
2021/07/12 00:15:39;;;;;;;9.77;8.05;;;;;;;;;;358861;147;857345;-64
2021/07/12 00:16:42;;;;;;;9.89;7.97;;;;;;;;;;362203;147;857041;-64
2021/07/12 00:17:44;;;;;;;10.21;8.26;;;;;;;;;;360093;148;857310;-63
2021/07/12 00:18:45;;;;;;;9.06;7.81;;;;;;;;;;357425;147;859148;-64
2021/07/12 00:19:47;;;;;;;9.29;7.89;;;;;;;;;;361623;147;857409;-64
2021/07/12 00:20:49;;;;;;;14.18;8.21;;;;;;;;;;361076;148;858157;-63
2021/07/12 00:21:51;;;;;;;9.68;8.08;;;;;;;;;;358270;147;858220;-63
2021/07/12 00:22:53;;;;;;;9.80;7.81;;;;;;;;;;360080;147;858763;-64
2021/07/12 00:23:54;;;;;;;11.13;8.01;;;;;;;;;;357195;147;859132;-64
2021/07/12 00:24:56;;;;;;;9.49;7.56;;;;;;;;;;354991;151;857197;-63
2021/07/12 00:25:58;;;;;;;10.87;8.14;;;;;;;;;;359620;147;866696;-64
2021/07/12 00:27:00;;;;;;;9.28;8.19;;;;;;;;;;361197;147;857301;-64
2021/07/12 00:28:02;;;;;;;10.84;7.39;;;;;;;;;;362666;148;865614;-64
2021/07/12 00:29:03;;;;;;;9.70;7.99;;;;;;;;;;361365;147;860269;-64
2021/07/12 00:30:06;;;;;;;10.57;7.80;;;;;;;;;;360144;147;859256;-64
2021/07/12 00:31:08;;;;;;;8.77;7.76;;;;;;;;;;361445;148;859046;-64
2021/07/12 00:32:09;;;;;;;12.14;7.96;;;;;;;;;;360645;148;859031;-63
2021/07/12 00:33:11;;;;;;;10.49;7.31;;;;;;;;;;359299;147;858573;-63
2021/07/12 00:34:12;;;;;;;10.81;8.11;;;;;;;;;;361227;147;859033;-63
2021/07/12 00:35:14;;;;;;;8.36;7.51;;;;;;;;;;353559;152;859061;-63
2021/07/12 00:36:17;;;;;;;7.90;7.19;;;;;;;;;;355224;147;857424;-62
2021/07/12 00:37:18;;;;;;;10.64;7.38;;;;;;;;;;361943;147;865849;-62
2021/07/12 00:38:20;;;;;;;12.14;7.41;;;;;;;;;;363248;148;857409;-63
2021/07/12 00:39:21;;;;;;;12.02;7.61;;;;;;;;;;363239;148;857300;-63
2021/07/12 00:40:24;;;;;;;11.27;8.04;;;;;;;;;;361558;147;857372;-64
2021/07/12 00:41:26;;;;;;;9.37;7.85;;;;;;;;;;360594;147;857371;-63
2021/07/12 00:42:28;;;;;;;9.39;7.89;;;;;;;;;;361478;148;857305;-62
2021/07/12 00:43:30;;;;;;;9.81;7.93;;;;;;;;;;360302;147;867139;-62
2021/07/12 00:44:31;;;;;;;11.10;8.20;;;;;;;;;;359863;147;858841;-62
2021/07/12 00:45:33;;;;;;;9.01;7.98;;;;;;;;;;356634;151;857794;-62
2021/07/12 00:46:36;;;;;;;14.25;8.20;;;;;;;;;;358417;148;857248;-62
2021/07/12 00:47:37;;;;;;;9.96;8.52;;;;;;;;;;360367;147;858157;-62
2021/07/12 00:48:39;;;;;;;10.04;7.66;;;;;;;;;;362204;147;857427;-62
2021/07/12 00:49:40;;;;;;;10.25;7.84;;;;;;;;;;363275;148;858575;-62
2021/07/12 00:50:44;;;;;;;9.73;7.92;;;;;;;;;;362113;147;859985;-62
2021/07/12 00:51:46;;;;;;;11.78;7.69;;;;;;;;;;361666;147;858930;-62
2021/07/12 00:52:48;;;;;;;12.09;8.09;;;;;;;;;;361278;148;857245;-62
2021/07/12 00:53:50;;;;;;;8.91;8.06;;;;;;;;;;360520;147;859047;-62
2021/07/12 00:54:51;;;;;;;8.91;7.94;;;;;;;;;;360363;147;859048;-62
2021/07/12 00:55:53;;;;;;;14.76;8.04;;;;;;;;;;363056;147;864928;-62
2021/07/12 00:56:55;;;;;;;10.19;8.28;;;;;;;;;;361788;148;857284;-62
2021/07/12 00:57:56;;;;;;;10.32;8.39;;;;;;;;;;358683;147;864939;-62
2021/07/12 00:58:58;;;;;;;12.37;9.45;;;;;;;;;;361350;147;864979;-62
2021/07/12 01:00:00;;;;;;;9.94;8.43;;;;;;;;;;362692;148;857292;-62
2021/07/12 01:01:03;;;;;;;9.46;8.47;;;;;;;;;;362848;147;857278;-62
2021/07/12 01:02:05;;;;;;;12.91;8.79;;;;;;;;;;360561;148;857129;-62
2021/07/12 01:03:07;;;;;;;12.74;9.16;;;;;;;;;;362820;147;857273;-62
2021/07/12 01:04:08;;;;;;;9.04;8.18;;;;;;;;;;359848;148;865018;-62
2021/07/12 01:05:13;;;;;;;13.12;9.35;;;;;;;;;;359881;147;857892;-62
2021/07/12 01:06:14;;;;;;;10.26;8.82;;;;;;;;;;361752;147;857156;-62
2021/07/12 01:07:16;;;;;;;11.71;8.11;;;;;;;;;;365738;147;857334;-62
2021/07/12 01:08:18;;;;;;;12.55;7.99;;;;;;;;;;361359;147;866310;-62
2021/07/12 01:09:19;;;;;;;11.66;8.40;;;;;;;;;;360867;147;858751;-62
2021/07/12 01:10:22;;;;;;;9.04;8.15;;;;;;;;;;363096;148;865084;-62
2021/07/12 01:11:28;;;;;;;10.47;8.65;;;;;;;;;;356951;148;865057;-61
2021/07/12 01:12:41;;;;;;;10.60;8.37;;;;;;;;;;360675;147;857319;-62
2021/07/12 01:13:50;;;;;;;10.92;8.53;;;;;;;;;;362289;148;857251;-62
2021/07/12 01:15:00;;;;;;;10.17;7.92;;;;;;;;;;351512;151;858657;-62
2021/07/12 01:16:16;;;;;;;10.57;7.75;;;;;;;;;;359512;147;858971;-62
2021/07/12 01:17:39;;;;;;;10.11;8.01;;;;;;;;;;362995;148;859194;-62
2021/07/12 01:18:44;;;;;;;10.32;7.89;;;;;;;;;;363073;148;857360;-62
2021/07/12 01:20:07;;;;;;;10.58;8.48;;;;;;;;;;360431;147;860863;-62
2021/07/12 01:21:12;;;;;;;10.34;8.65;;;;;;;;;;359119;148;857739;-62
2021/07/12 01:22:25;;;;;;;10.36;8.47;;;;;;;;;;360968;148;857203;-62
2021/07/12 01:23:29;;;;;;;13.84;8.67;;;;;;;;;;360428;147;859114;-62
2021/07/12 01:24:35;;;;;;;9.74;8.83;;;;;;;;;;362662;146;857132;-62
2021/07/12 01:25:41;;;;;;;10.60;8.79;;;;;;;;;;357427;148;857177;-62
2021/07/12 01:26:58;;;;;;;9.41;8.38;;;;;;;;;;359510;148;858920;-62
2021/07/12 01:28:10;;;;;;;10.72;8.89;;;;;;;;;;349041;151;858497;-62
2021/07/12 01:29:14;;;;;;;10.33;8.79;;;;;;;;;;352777;148;858844;-62
2021/07/12 01:30:18;;;;;;;9.94;8.22;;;;;;;;;;359229;147;857223;-62
2021/07/12 01:31:37;;;;;;;11.28;8.94;;;;;;;;;;361636;147;865053;-62
2021/07/12 01:32:41;;;;;;;11.86;8.57;;;;;;;;;;356545;148;857258;-63
2021/07/12 01:33:44;;;;;;;9.47;8.54;;;;;;;;;;359667;148;858869;-62
2021/07/12 01:34:50;;;;;;;12.90;8.77;;;;;;;;;;358876;147;859732;-63
2021/07/12 01:35:57;;;;;;;10.43;8.97;;;;;;;;;;356718;151;859543;-63
2021/07/12 01:37:18;;;;;;;10.96;8.30;;;;;;;;;;357086;147;857247;-62
2021/07/12 01:38:19;;;;;;;;;;;;;;;;;;363166;147;858252;-62
2021/07/12 01:39:21;;;;;;;9.40;8.49;;;;;;;;;;362668;148;857402;-63
2021/07/12 01:40:41;;;;;;;11.56;9.16;;;;;;;;;;362563;147;857727;-63
2021/07/12 01:41:53;;;;;;;10.63;8.28;;;;;;;;;;360509;147;857862;-63
2021/07/12 01:43:00;;;;;;;10.49;8.14;;;;;;;;;;360921;148;857154;-63
2021/07/12 01:44:03;;;;;;;13.77;9.33;;;;;;;;;;355826;148;857336;-63
2021/07/12 01:45:06;;;;;;;9.60;8.52;;;;;;;;;;360138;147;857173;-63
2021/07/12 01:46:09;;;;;;;11.62;8.74;;;;;;;;;;360244;148;865699;-63
2021/07/12 01:47:15;;;;;;;10.98;8.79;;;;;;;;;;361715;148;865844;-62
2021/07/12 01:48:18;;;;;;;10.46;8.24;;;;;;;;;;358565;148;857242;-63
2021/07/12 01:49:34;;;;;;;9.94;8.43;;;;;;;;;;360497;148;857945;-61
2021/07/12 01:50:44;;;;;;;10.31;8.26;;;;;;;;;;361329;148;859860;-62
2021/07/12 01:51:49;;;;;;;21.54;9.31;;;;;;;;;;360560;147;858979;-61
2021/07/12 01:52:53;;;;;;;10.99;8.56;;;;;;;;;;358868;147;858174;-61
2021/07/12 01:53:59;;;;;;;13.72;8.45;;;;;;;;;;360672;148;857286;-62
2021/07/12 01:55:12;;;;;;;13.40;8.91;;;;;;;;;;352801;147;859520;-60
2021/07/12 01:56:17;;;;;;;16.77;10.58;;;;;;;;;;355133;150;858219;-63
2021/07/12 01:57:24;;;;;;;17.28;10.41;;;;;;;;;;355764;148;857358;-61
2021/07/12 01:58:27;;;;;;;13.01;9.25;;;;;;;;;;361420;147;859216;-62
2021/07/12 01:59:31;;;;;;;16.89;10.24;;;;;;;;;;360605;147;857337;-62
2021/07/12 02:00:33;;;;;;;20.85;9.51;;;;;;;;;;352912;150;857382;-62
2021/07/12 02:01:35;;;;;;;12.89;9.90;;;;;;;;;;358318;148;857389;-62
2021/07/12 02:02:37;;;;;;;15.71;11.00;;;;;;;;;;351929;150;858965;-61
2021/07/12 02:03:39;;;;;;;21.87;11.19;;;;;;;;;;352125;151;858223;-62
2021/07/12 02:04:40;;;;;;;13.93;11.19;;;;;;;;;;357853;149;857112;-61
2021/07/12 02:05:42;;;;;;;16.79;10.93;;;;;;;;;;359474;147;858288;-61
2021/07/12 02:06:44;;;;;;;18.73;10.98;;;;;;;;;;360044;147;859467;-62
2021/07/12 02:07:46;;;;;;;18.07;10.42;;;;;;;;;;361499;148;859988;-61
2021/07/12 02:08:48;;;;;;;14.75;10.14;;;;;;;;;;362513;148;858763;-61
2021/07/12 02:09:50;;;;;;;14.94;10.12;;;;;;;;;;360964;147;858713;-62
2021/07/12 02:10:53;;;;;;;17.05;10.01;;;;;;;;;;357897;147;858594;-62
2021/07/12 02:11:56;;;;;;;15.41;10.25;;;;;;;;;;358930;148;858855;-62
2021/07/12 02:12:58;;;;;;;12.05;9.73;;;;;;;;;;360483;147;859776;-61
2021/07/12 02:14:00;;;;;;;11.29;9.59;;;;;;;;;;360717;147;866672;-62
2021/07/12 02:15:02;;;;;;;11.64;8.81;;;;;;;;;;362513;147;858966;-62
2021/07/12 02:16:04;;;;;;;12.23;9.17;;;;;;;;;;361558;148;857174;-61
2021/07/12 02:17:05;;;;;;;9.19;8.27;;;;;;;;;;359288;147;857470;-62
2021/07/12 02:18:07;;;;;;;11.95;9.41;;;;;;;;;;360732;147;857849;-62
2021/07/12 02:19:08;;;;;;;13.64;9.46;;;;;;;;;;362625;148;859312;-61
2021/07/12 02:20:11;;;;;;;11.50;8.56;;;;;;;;;;361252;147;858464;-61
2021/07/12 02:21:13;;;;;;;10.14;9.09;;;;;;;;;;360336;147;859223;-61
2021/07/12 02:22:15;;;;;;;12.46;9.70;;;;;;;;;;361250;148;859099;-62
2021/07/12 02:23:17;;;;;;;12.62;9.49;;;;;;;;;;358454;148;859068;-60
2021/07/12 02:24:19;;;;;;;10.71;9.14;;;;;;;;;;360663;147;865069;-61
2021/07/12 02:25:20;;;;;;;11.87;9.46;;;;;;;;;;360530;147;857385;-61
2021/07/12 02:26:23;;;;;;;15.27;8.91;;;;;;;;;;360674;148;857419;-60
2021/07/12 02:27:24;;;;;;;12.14;8.64;;;;;;;;;;358010;148;857383;-61
2021/07/12 02:28:26;;;;;;;10.96;8.69;;;;;;;;;;360753;148;865669;-61
2021/07/12 02:29:28;;;;;;;11.68;8.66;;;;;;;;;;358679;148;857388;-61
2021/07/12 02:30:30;;;;;;;15.99;8.83;;;;;;;;;;360819;148;857151;-62
2021/07/12 02:31:31;;;;;;;13.66;8.91;;;;;;;;;;357164;147;864983;-61
2021/07/12 02:32:34;;;;;;;9.83;8.39;;;;;;;;;;361192;147;857326;-62
2021/07/12 02:33:35;;;;;;;12.07;8.70;;;;;;;;;;362683;148;859138;-61
2021/07/12 02:34:37;;;;;;;11.91;8.89;;;;;;;;;;360024;147;857385;-61
2021/07/12 02:35:39;;;;;;;14.17;9.23;;;;;;;;;;359596;147;857760;-61
2021/07/12 02:36:41;;;;;;;11.59;8.67;;;;;;;;;;360663;147;857671;-61
2021/07/12 02:37:43;;;;;;;13.40;9.02;;;;;;;;;;361473;148;857370;-61
2021/07/12 02:38:44;;;;;;;11.09;8.25;;;;;;;;;;357572;147;857417;-61
2021/07/12 02:39:46;;;;;;;15.72;8.64;;;;;;;;;;361642;147;857722;-61
2021/07/12 02:40:48;;;;;;;15.59;8.52;;;;;;;;;;362673;148;857398;-61
2021/07/12 02:41:50;;;;;;;14.04;8.69;;;;;;;;;;351675;151;857425;-61
2021/07/12 02:42:52;;;;;;;10.29;8.36;;;;;;;;;;353283;147;857301;-61
2021/07/12 02:43:54;;;;;;;11.00;8.35;;;;;;;;;;362584;148;858948;-61
2021/07/12 02:44:56;;;;;;;14.05;8.41;;;;;;;;;;360112;148;859400;-61
2021/07/12 02:45:57;;;;;;;13.36;8.39;;;;;;;;;;360956;147;858062;-61
2021/07/12 02:46:59;;;;;;;12.18;8.80;;;;;;;;;;357644;147;857438;-61
2021/07/12 02:48:01;;;;;;;13.23;9.33;;;;;;;;;;354360;149;866319;-61
2021/07/12 02:49:02;;;;;;;13.35;9.76;;;;;;;;;;358490;147;858466;-61
2021/07/12 02:50:04;;;;;;;13.47;9.91;;;;;;;;;;354719;148;857314;-61
2021/07/12 02:51:08;;;;;;;16.19;9.65;;;;;;;;;;353548;150;865220;-61
2021/07/12 02:52:11;;;;;;;12.31;9.96;;;;;;;;;;360715;148;858827;-61
2021/07/12 02:53:17;;;;;;;13.70;10.23;;;;;;;;;;360957;147;858778;-61
2021/07/12 02:54:20;;;;;;;13.26;9.56;;;;;;;;;;361845;148;858247;-61
2021/07/12 02:55:22;;;;;;;11.08;8.51;;;;;;;;;;362430;148;857489;-61
2021/07/12 02:56:24;;;;;;;11.55;8.53;;;;;;;;;;361559;147;857424;-61
2021/07/12 02:57:27;;;;;;;14.47;8.61;;;;;;;;;;361052;147;857440;-61
2021/07/12 02:58:28;;;;;;;14.83;9.93;;;;;;;;;;357492;148;857400;-61
2021/07/12 02:59:30;;;;;;;11.20;9.33;;;;;;;;;;360717;148;857187;-61
2021/07/12 03:00:32;;;;;;;11.14;8.70;;;;;;;;;;359453;147;857153;-60
2021/07/12 03:01:33;;;;;;;12.01;8.49;;;;;;;;;;360752;147;857323;-60
2021/07/12 03:02:35;;;;;;;11.10;8.70;;;;;;;;;;354737;148;858022;-60
2021/07/12 03:03:36;;;;;;;15.26;8.51;;;;;;;;;;358889;148;857477;-59
2021/07/12 03:04:38;;;;;;;16.80;8.49;;;;;;;;;;360540;147;859005;-60
2021/07/12 03:05:40;;;;;;;16.49;9.29;;;;;;;;;;355859;151;857313;-60
2021/07/12 03:06:43;;;;;;;10.57;8.60;;;;;;;;;;355761;151;857214;-61
2021/07/12 03:07:52;;;;;;;12.20;8.68;;;;;;;;;;359155;147;858197;-60
2021/07/12 03:08:55;;;;;;;10.72;9.14;;;;;;;;;;355932;148;857089;-60
2021/07/12 03:09:59;;;;;;;13.13;8.64;;;;;;;;;;356497;151;857324;-60
2021/07/12 03:11:01;;;;;;;11.79;8.36;;;;;;;;;;359930;147;857346;-62
2021/07/12 03:12:04;;;;;;;14.64;9.13;;;;;;;;;;357762;147;865763;-61
2021/07/12 03:13:06;;;;;;;13.19;8.92;;;;;;;;;;359684;148;857284;-63
2021/07/12 03:14:26;;;;;;;12.24;8.30;;;;;;;;;;359195;147;857809;-62
2021/07/12 03:15:32;;;;;;;12.11;8.92;;;;;;;;;;359595;147;857406;-62
2021/07/12 03:16:34;;;;;;;14.29;8.93;;;;;;;;;;357566;148;857265;-61
2021/07/12 03:17:38;;;;;;;14.07;9.95;;;;;;;;;;353857;150;857947;-61
2021/07/12 03:18:47;;;;;;;13.54;9.82;;;;;;;;;;353937;148;865935;-60
2021/07/12 03:19:49;;;;;;;15.03;9.91;;;;;;;;;;356027;148;857890;-60
2021/07/12 03:20:51;;;;;;;13.47;9.84;;;;;;;;;;360003;148;857268;-61
2021/07/12 03:21:53;;;;;;;11.85;9.79;;;;;;;;;;358109;147;864853;-61
2021/07/12 03:22:55;;;;;;;11.74;9.96;;;;;;;;;;358955;147;864856;-61
2021/07/12 03:23:58;;;;;;;13.72;8.98;;;;;;;;;;354244;151;857345;-61
2021/07/12 03:24:59;;;;;;;11.93;9.37;;;;;;;;;;356278;148;857244;-60
2021/07/12 03:26:01;;;;;;;17.19;9.97;;;;;;;;;;360420;147;859432;-60
2021/07/12 03:27:03;;;;;;;13.73;10.01;;;;;;;;;;358509;148;866286;-61
2021/07/12 03:28:05;;;;;;;16.83;9.61;;;;;;;;;;356351;148;859306;-62
2021/07/12 03:29:07;;;;;;;14.48;10.10;;;;;;;;;;361191;147;857323;-61
2021/07/12 03:30:10;;;;;;;15.05;9.55;;;;;;;;;;360655;147;865565;-62
2021/07/12 03:31:12;;;;;;;15.61;9.75;;;;;;;;;;358868;148;866280;-61
2021/07/12 03:32:13;;;;;;;16.46;9.26;;;;;;;;;;362323;147;866310;-60
2021/07/12 03:33:15;;;;;;;11.26;8.47;;;;;;;;;;359182;147;857850;-60
2021/07/12 03:34:17;;;;;;;15.96;8.59;;;;;;;;;;360471;147;857373;-61
2021/07/12 03:35:18;;;;;;;13.09;8.99;;;;;;;;;;360691;149;865020;-62
2021/07/12 03:36:20;;;;;;;14.82;8.67;;;;;;;;;;361119;147;857420;-61
2021/07/12 03:37:22;;;;;;;13.36;9.47;;;;;;;;;;359203;147;859241;-60
2021/07/12 03:38:23;;;;;;;12.85;9.28;;;;;;;;;;360101;148;858408;-59
2021/07/12 03:39:25;;;;;;;13.55;9.56;;;;;;;;;;358573;147;856714;-60
2021/07/12 03:40:27;;;;;;;14.99;9.58;;;;;;;;;;358178;148;857348;-60
2021/07/12 03:41:29;;;;;;;15.20;9.79;;;;;;;;;;360546;148;857280;-60
2021/07/12 03:42:34;;;;;;;18.01;9.81;;;;;;;;;;358446;148;858893;-59
2021/07/12 03:43:34;;;;;;;16.69;9.63;;;;;;;;;;351455;150;865082;-61
2021/07/12 03:44:37;;;;;;;22.41;10.19;;;;;;;;;;354818;148;857347;-61
2021/07/12 03:45:39;;;;;;;14.31;9.74;;;;;;;;;;362244;148;859035;-61
2021/07/12 03:46:42;;;;;;;12.89;9.98;;;;;;;;;;360099;147;857350;-60
2021/07/12 03:47:45;;;;;;;10.89;9.48;;;;;;;;;;361058;147;857890;-59
2021/07/12 03:48:47;;;;;;;14.70;10.01;;;;;;;;;;359620;148;857382;-60
2021/07/12 03:49:49;;;;;;;10.26;9.23;;;;;;;;;;362767;147;859384;-61
2021/07/12 03:50:51;;;;;;;13.28;9.71;;;;;;;;;;360514;147;864984;-60
2021/07/12 03:51:53;;;;;;;13.32;9.52;;;;;;;;;;357256;148;864823;-60
2021/07/12 03:52:54;;;;;;;11.64;9.36;;;;;;;;;;356498;148;857329;-60
2021/07/12 03:53:56;;;;;;;10.53;9.08;;;;;;;;;;358333;147;865618;-60
2021/07/12 03:54:57;;;;;;;11.72;9.09;;;;;;;;;;360412;147;858200;-60
2021/07/12 03:56:00;;;;;;;12.52;9.79;;;;;;;;;;356749;148;859322;-59
2021/07/12 03:57:01;;;;;;;10.57;9.49;;;;;;;;;;357887;147;859773;-59
2021/07/12 03:58:04;;;;;;;13.70;9.46;;;;;;;;;;361969;147;860167;-61
2021/07/12 03:59:05;;;;;;;12.35;9.47;;;;;;;;;;360789;148;859633;-61
2021/07/12 04:00:08;;;;;;;11.33;9.32;;;;;;;;;;357662;148;865386;-61
2021/07/12 04:01:10;;;;;;;11.37;8.77;;;;;;;;;;359894;147;857228;-61
2021/07/12 04:02:12;;;;;;;11.27;9.46;;;;;;;;;;358256;147;859433;-60
2021/07/12 04:03:13;;;;;;;10.80;9.61;;;;;;;;;;361895;148;864963;-61
2021/07/12 04:04:15;;;;;;;10.79;9.56;;;;;;;;;;360062;147;857355;-63
2021/07/12 04:05:17;;;;;;;12.93;9.34;;;;;;;;;;359875;147;858610;-62
2021/07/12 04:06:21;;;;;;;16.19;9.68;;;;;;;;;;352494;150;860511;-63
2021/07/12 04:07:22;;;;;;;11.55;9.55;;;;;;;;;;356869;151;857519;-62
2021/07/12 04:08:24;;;;;;;13.14;9.72;;;;;;;;;;358339;147;856549;-59
2021/07/12 04:09:25;;;;;;;11.03;9.04;;;;;;;;;;360908;147;856764;-62
2021/07/12 04:10:29;;;;;;;11.22;9.34;;;;;;;;;;360145;148;856620;-62
2021/07/12 04:11:33;;;;;;;15.45;9.36;;;;;;;;;;358753;147;856411;-63
2021/07/12 04:12:34;;;;;;;11.31;9.70;;;;;;;;;;358450;148;857253;-62
2021/07/12 04:13:35;;;;;;;11.39;9.84;;;;;;;;;;358322;148;858930;-63
2021/07/12 04:14:37;;;;;;;12.55;9.76;;;;;;;;;;357506;148;857349;-61
2021/07/12 04:15:39;;;;;;;12.94;9.79;;;;;;;;;;360496;147;857466;-63
2021/07/12 04:16:42;;;;;;;12.79;9.64;;;;;;;;;;358653;147;857274;-61
2021/07/12 04:17:44;;;;;;;12.79;9.31;;;;;;;;;;362434;148;865653;-61
2021/07/12 04:18:45;;;;;;;15.36;9.84;;;;;;;;;;359919;148;857439;-62
2021/07/12 04:19:47;;;;;;;18.59;10.07;;;;;;;;;;358553;147;864940;-63
2021/07/12 04:20:50;;;;;;;12.16;9.48;;;;;;;;;;359760;148;857475;-63
2021/07/12 04:21:52;;;;;;;15.68;9.47;;;;;;;;;;360279;148;857302;-63
2021/07/12 04:22:56;;;;;;;10.90;9.66;;;;;;;;;;361567;147;866076;-64
2021/07/12 04:23:58;;;;;;;10.73;9.23;;;;;;;;;;359232;147;857581;-62
2021/07/12 04:25:00;;;;;;;12.67;8.95;;;;;;;;;;357116;148;857194;-62
2021/07/12 04:26:02;;;;;;;13.55;9.29;;;;;;;;;;360643;147;865892;-60
2021/07/12 04:27:04;;;;;;;10.86;9.57;;;;;;;;;;360700;148;864971;-63
2021/07/12 04:28:05;;;;;;;15.90;9.06;;;;;;;;;;359302;148;857832;-61
2021/07/12 04:29:07;;;;;;;15.19;9.15;;;;;;;;;;359025;148;857313;-60
2021/07/12 04:30:09;;;;;;;11.39;9.63;;;;;;;;;;358031;147;857350;-59
2021/07/12 04:31:14;;;;;;;12.99;9.07;;;;;;;;;;360837;147;857286;-59
2021/07/12 04:32:16;;;;;;;10.19;8.79;;;;;;;;;;360705;148;857811;-64
2021/07/12 04:33:17;;;;;;;16.99;9.94;;;;;;;;;;358940;147;865552;-61
2021/07/12 04:34:19;;;;;;;12.23;9.76;;;;;;;;;;358501;147;857414;-61
2021/07/12 04:35:20;;;;;;;12.91;9.41;;;;;;;;;;360417;148;857919;-65
2021/07/12 04:36:24;;;;;;;15.67;10.14;;;;;;;;;;358985;148;857556;-63
2021/07/12 04:37:26;;;;;;;12.03;10.52;;;;;;;;;;358579;147;856677;-61
2021/07/12 04:38:27;;;;;;;14.54;11.06;;;;;;;;;;354458;150;857451;-61
2021/07/12 04:39:29;;;;;;;16.12;10.16;;;;;;;;;;361421;148;857400;-63
2021/07/12 04:40:31;;;;;;;10.85;8.89;;;;;;;;;;361281;147;859190;-59
2021/07/12 04:41:33;;;;;;;13.68;8.95;;;;;;;;;;359142;147;858191;-58
2021/07/12 04:42:35;;;;;;;9.73;8.67;;;;;;;;;;360313;148;857752;-57
2021/07/12 04:43:36;;;;;;;10.87;9.14;;;;;;;;;;354217;150;857353;-61
2021/07/12 04:44:38;;;;;;;9.78;8.76;;;;;;;;;;355027;148;865132;-63
2021/07/12 04:45:39;;;;;;;12.51;8.94;;;;;;;;;;359106;147;857482;-63
2021/07/12 04:46:42;;;;;;;10.90;8.54;;;;;;;;;;357936;148;857304;-64
2021/07/12 04:47:43;;;;;;;10.57;8.50;;;;;;;;;;360385;147;857406;-58
2021/07/12 04:48:45;;;;;;;10.46;8.53;;;;;;;;;;357997;147;857460;-60
2021/07/12 04:49:47;;;;;;;11.77;8.61;;;;;;;;;;358101;148;858390;-60
2021/07/12 04:50:49;;;;;;;9.63;8.63;;;;;;;;;;361773;147;856977;-62
2021/07/12 04:51:51;;;;;;;15.02;9.14;;;;;;;;;;360196;148;857986;-61
2021/07/12 04:52:52;;;;;;;10.91;8.34;;;;;;;;;;352352;141;858613;-61
2021/07/12 04:53:54;;;;;;;9.99;8.68;;;;;;;;;;356131;149;858372;-59
2021/07/12 04:54:55;;;;;;;12.44;8.96;;;;;;;;;;354758;148;857341;-61
2021/07/12 04:55:57;;;;;;;10.59;8.31;;;;;;;;;;354914;149;857280;-61
2021/07/12 04:56:58;;;;;;;10.97;8.51;;;;;;;;;;350245;150;857340;-59
2021/07/12 04:58:00;;;;;;;12.77;8.61;;;;;;;;;;358107;148;866686;-60
2021/07/12 04:59:06;;;;;;;10.98;9.01;;;;;;;;;;354495;149;857468;-59
2021/07/12 05:00:07;;;;;;;11.86;8.56;;;;;;;;;;355382;148;858121;-59
2021/07/12 05:01:08;;;;;;;11.90;8.94;;;;;;;;;;354506;148;857945;-60
2021/07/12 05:02:10;;;;;;;11.29;8.91;;;;;;;;;;357167;148;859895;-60
2021/07/12 05:03:12;;;;;;;15.20;8.47;;;;;;;;;;355369;148;857262;-59
2021/07/12 05:04:13;;;;;;;11.42;8.44;;;;;;;;;;356372;148;857382;-63
2021/07/12 05:05:15;;;;;;;12.01;8.44;;;;;;;;;;355267;148;857445;-60
2021/07/12 05:06:17;;;;;;;9.99;8.51;;;;;;;;;;356958;149;857474;-60
2021/07/12 05:07:18;;;;;;;9.81;8.67;;;;;;;;;;354470;149;857494;-60
2021/07/12 05:08:20;;;;;;;14.89;8.43;;;;;;;;;;355741;150;859443;-59
2021/07/12 05:09:22;;;;;;;13.11;9.19;;;;;;;;;;356505;149;866284;-59
2021/07/12 05:10:23;;;;;;;10.20;9.10;;;;;;;;;;354645;148;857449;-58
2021/07/12 05:11:25;;;;;;;12.63;9.34;;;;;;;;;;354455;148;865040;-60
2021/07/12 05:12:27;;;;;;;11.19;8.91;;;;;;;;;;355341;148;857374;-60
2021/07/12 05:13:29;;;;;;;10.74;8.81;;;;;;;;;;354443;148;857348;-59
2021/07/12 05:14:31;;;;;;;15.37;8.89;;;;;;;;;;356270;149;857281;-60
2021/07/12 05:15:32;;;;;;;9.99;8.92;;;;;;;;;;355707;150;857289;-61
2021/07/12 05:16:34;;;;;;;11.06;8.81;;;;;;;;;;355467;148;857353;-62
2021/07/12 05:17:36;;;;;;;12.29;8.85;;;;;;;;;;355425;149;857373;-63
2021/07/12 05:18:38;;;;;;;11.78;8.64;;;;;;;;;;349069;153;866664;-60
2021/07/12 05:19:39;;;;;;;13.01;9.91;;;;;;;;;;349865;151;857367;-62
2021/07/12 05:20:42;;;;;;;10.20;9.15;;;;;;;;;;355183;148;857353;-63
2021/07/12 05:21:44;;;;;;;10.32;9.05;;;;;;;;;;360043;148;864938;-64
2021/07/12 05:22:46;;;;;;;15.10;10.07;;;;;;;;;;358002;148;859085;-64
2021/07/12 05:23:47;;;;;;;11.40;9.46;;;;;;;;;;355876;148;859211;-60
2021/07/12 05:24:49;;;;;;;13.51;10.01;;;;;;;;;;357432;147;858681;-60
2021/07/12 05:25:51;;;;;;;10.92;9.81;;;;;;;;;;358083;148;859217;-60
2021/07/12 05:26:54;;;;;;;21.13;9.83;;;;;;;;;;353363;148;859443;-60
2021/07/12 05:27:56;;;;;;;15.49;10.14;;;;;;;;;;356378;148;857759;-61
2021/07/12 05:28:58;;;;;;;12.56;9.63;;;;;;;;;;358528;148;857396;-61
2021/07/12 05:29:59;;;;;;;14.74;9.70;;;;;;;;;;362634;148;857292;-61
2021/07/12 05:31:01;;;;;;;12.66;10.36;;;;;;;;;;356680;148;857384;-61
2021/07/12 05:32:03;;;;;;;17.66;10.21;;;;;;;;;;356478;148;864795;-61
2021/07/12 05:33:06;;;;;;;14.55;10.39;;;;;;;;;;355218;151;857337;-61
2021/07/12 05:34:07;;;;;;;11.81;9.11;;;;;;;;;;352015;151;859276;-61
2021/07/12 05:35:10;;;;;;;11.03;9.89;;;;;;;;;;357368;149;857843;-60
2021/07/12 05:36:12;;;;;;;15.61;10.32;;;;;;;;;;355702;148;857682;-61
2021/07/12 05:37:13;;;;;;;13.28;9.81;;;;;;;;;;358527;150;864992;-61
2021/07/12 05:38:15;;;;;;;11.13;9.96;;;;;;;;;;355109;148;857323;-62
2021/07/12 05:39:16;;;;;;;10.86;9.76;;;;;;;;;;358346;148;857341;-61
2021/07/12 05:40:19;;;;;;;14.88;10.65;;;;;;;;;;354610;150;857449;-62
2021/07/12 05:41:21;;;;;;;11.03;9.96;;;;;;;;;;355933;148;857405;-62
2021/07/12 05:42:23;;;;;;;13.03;10.14;;;;;;;;;;355785;149;857585;-62
2021/07/12 05:43:25;;;;;;;15.64;10.00;;;;;;;;;;349716;154;857426;-62
2021/07/12 05:44:26;;;;;;;16.01;10.21;;;;;;;;;;351584;147;857427;-61
2021/07/12 05:45:28;;;;;;;12.66;10.24;;;;;;;;;;356708;148;859043;-62
2021/07/12 05:46:31;;;;;;;15.15;10.29;;;;;;;;;;355401;149;860526;-62
2021/07/12 05:47:32;;;;;;;14.66;10.18;;;;;;;;;;355235;148;865785;-62
2021/07/12 05:48:34;;;;;;;13.29;10.07;;;;;;;;;;357216;148;857997;-62
2021/07/12 05:49:35;;;;;;;13.09;10.07;;;;;;;;;;356929;148;857549;-62
2021/07/12 05:50:38;;;;;;;13.18;10.04;;;;;;;;;;347165;155;857440;-62
2021/07/12 05:51:40;;;;;;;22.01;11.26;;;;;;;;;;355967;151;860479;-62
2021/07/12 05:52:42;;;;;;;18.03;10.61;;;;;;;;;;355036;147;857346;-62
2021/07/12 05:53:43;;;;;;;16.84;11.01;;;;;;;;;;350902;151;858452;-62
2021/07/12 05:54:45;;;;;;;12.78;10.02;;;;;;;;;;350667;152;857831;-62
2021/07/12 05:55:46;;;;;;;14.67;9.76;;;;;;;;;;349766;150;857455;-62
2021/07/12 05:56:49;;;;;;;12.69;9.10;;;;;;;;;;351696;151;857842;-61
2021/07/12 05:57:51;;;;;;;12.21;8.84;;;;;;;;;;352158;152;864806;-63
2021/07/12 05:58:52;;;;;;;13.74;8.04;;;;;;;;;;352698;150;865308;-62
2021/07/12 05:59:54;;;;;;;13.72;8.29;;;;;;;;;;351278;151;857367;-62
2021/07/12 06:00:57;;;;;;;10.82;8.12;;;;;;;;;;353107;151;859662;-62
2021/07/12 06:01:59;;;;;;;14.37;7.63;;;;;;;;;;353567;152;857241;-62
2021/07/12 06:03:00;;;;;;;9.71;7.71;;;;;;;;;;352578;150;859421;-62
2021/07/12 06:04:02;;;;;;;9.99;7.69;;;;;;;;;;352051;151;863911;-62
2021/07/12 06:05:04;;;;;;;12.06;7.43;;;;;;;;;;351724;153;858829;-62
2021/07/12 06:06:06;;;;;;;9.31;7.11;;;;;;;;;;349617;150;860155;-62